createdAt,value
2018-07-05T00:00:31.681Z,83.50
2018-07-05T00:03:11.132Z,83.20
2018-07-05T00:05:50.752Z,83.40
2018-07-05T00:08:30.112Z,83.50
2018-07-05T00:11:09.710Z,83.90
2018-07-05T00:13:49.301Z,84.40
2018-07-05T00:16:28.696Z,84.10
2018-07-05T00:19:08.261Z,83.90
2018-07-05T00:21:47.841Z,84.20
2018-07-05T00:24:27.409Z,84.10
2018-07-05T00:27:07.092Z,84.20
2018-07-05T00:29:46.712Z,85.00
2018-07-05T00:32:26.195Z,85.40
2018-07-05T00:35:05.802Z,85.70
2018-07-05T00:37:45.193Z,85.50
2018-07-05T00:40:24.702Z,85.40
2018-07-05T00:43:04.148Z,85.60
2018-07-05T00:45:43.825Z,86.10
2018-07-05T00:48:23.303Z,86.90
2018-07-05T00:53:36.423Z,87.60
2018-07-05T00:56:16.008Z,87.40
2018-07-05T00:58:55.500Z,87.20
2018-07-05T01:01:35.072Z,86.80
2018-07-05T01:04:14.720Z,86.50
2018-07-05T01:06:54.144Z,85.90
2018-07-05T01:09:33.781Z,85.30
2018-07-05T01:12:13.272Z,85.00
2018-07-05T01:14:52.881Z,84.90
2018-07-05T01:17:32.366Z,85.00
2018-07-05T01:20:11.681Z,84.80
2018-07-05T01:22:51.253Z,85.10
2018-07-05T01:25:31.459Z,85.70
2018-07-05T01:28:10.932Z,85.70
2018-07-05T01:30:51.067Z,86.10
2018-07-05T01:33:30.748Z,86.00
2018-07-05T01:36:10.271Z,85.40
2018-07-05T01:38:49.733Z,84.90
2018-07-05T01:41:29.269Z,84.80
2018-07-05T01:44:08.790Z,84.90
2018-07-05T01:46:48.281Z,85.10
2018-07-05T01:49:27.912Z,85.80
2018-07-05T01:52:11.476Z,86.10
2018-07-05T01:54:51.844Z,86.20
2018-07-05T01:57:31.625Z,86.40
2018-07-05T02:00:11.034Z,86.80
2018-07-05T02:02:51.185Z,86.90
2018-07-05T02:05:30.661Z,87.40
2018-07-05T02:08:10.318Z,87.70
2018-07-05T02:10:49.741Z,88.10
2018-07-05T02:13:29.323Z,88.60
2018-07-05T02:16:08.753Z,88.50
2018-07-05T02:18:48.520Z,88.50
2018-07-05T02:21:28.173Z,88.70
2018-07-05T02:24:07.778Z,88.80
2018-07-05T02:26:47.239Z,88.70
2018-07-05T02:29:26.787Z,89.00
2018-07-05T02:32:06.300Z,89.60
2018-07-05T02:34:45.906Z,90.10
2018-07-05T02:37:30.856Z,90.30
2018-07-05T02:40:10.479Z,90.60
2018-07-05T02:42:49.850Z,90.30
2018-07-05T02:45:29.396Z,90.40
2018-07-05T02:48:08.887Z,90.50
2018-07-05T02:50:48.607Z,90.60
2018-07-05T02:53:28.075Z,90.40
2018-07-05T02:56:07.687Z,90.50
2018-07-05T02:58:47.152Z,90.40
2018-07-05T03:01:26.736Z,90.40
2018-07-05T03:04:06.144Z,91.00
2018-07-05T03:06:45.734Z,91.00
2018-07-05T03:09:25.337Z,90.80
2018-07-05T03:12:04.793Z,90.70
2018-07-05T03:14:44.484Z,90.50
2018-07-05T03:17:23.996Z,91.00
2018-07-05T03:20:03.361Z,90.70
2018-07-05T03:22:42.998Z,90.60
2018-07-05T03:25:22.605Z,90.20
2018-07-05T03:28:02.201Z,89.60
2018-07-05T03:30:41.812Z,90.00
2018-07-05T03:33:21.472Z,90.00
2018-07-05T03:36:01.113Z,89.50
2018-07-05T03:38:40.814Z,90.00
2018-07-05T03:41:20.365Z,89.80
2018-07-05T03:43:59.856Z,89.40
2018-07-05T03:46:39.233Z,88.00
2018-07-05T03:49:18.765Z,87.10
2018-07-05T03:51:58.209Z,88.30
2018-07-05T03:54:37.955Z,88.70
2018-07-05T03:57:17.552Z,88.20
2018-07-05T03:59:57.206Z,86.80
2018-07-05T04:05:10.344Z,87.40
2018-07-05T04:07:49.783Z,85.90
2018-07-05T04:10:29.352Z,85.40
2018-07-05T04:13:08.956Z,84.90
2018-07-05T04:15:48.354Z,84.50
2018-07-05T04:18:28.150Z,84.50
2018-07-05T04:21:07.600Z,83.10
2018-07-05T04:23:47.161Z,82.50
2018-07-05T04:26:26.694Z,81.20
2018-07-05T04:29:06.220Z,80.20
2018-07-05T04:31:45.910Z,79.70
2018-07-05T04:34:25.260Z,80.30
2018-07-05T04:37:04.835Z,80.40
2018-07-05T04:39:44.364Z,79.40
2018-07-05T04:42:23.989Z,79.50
2018-07-05T04:45:03.546Z,79.50
2018-07-05T04:47:43.246Z,79.70
2018-07-05T04:50:22.674Z,78.50
2018-07-05T04:53:02.289Z,78.80
2018-07-05T04:55:41.855Z,78.60
2018-07-05T04:58:21.386Z,77.60
2018-07-05T05:01:00.910Z,79.20
2018-07-05T05:03:40.505Z,79.70
2018-07-05T05:06:19.888Z,79.10
2018-07-05T05:08:59.708Z,79.10
2018-07-05T05:11:39.302Z,78.30
2018-07-05T05:14:19.365Z,77.80
2018-07-05T05:16:58.980Z,78.20
2018-07-05T05:19:38.462Z,76.70
2018-07-05T05:22:18.026Z,77.30
2018-07-05T05:24:57.513Z,78.20
2018-07-05T05:27:37.228Z,78.40
2018-07-05T05:30:16.886Z,77.70
2018-07-05T05:32:56.393Z,78.90
2018-07-05T05:35:36.047Z,77.50
2018-07-05T05:38:15.679Z,75.80
2018-07-05T05:40:55.172Z,74.80
2018-07-05T05:43:34.688Z,74.50
2018-07-05T05:46:14.256Z,75.90
2018-07-05T05:48:53.919Z,75.10
2018-07-05T05:51:33.357Z,73.90
2018-07-05T05:54:12.968Z,74.70
2018-07-05T05:56:52.476Z,76.20
2018-07-05T05:59:32.037Z,75.40
2018-07-05T06:02:11.731Z,76.30
2018-07-05T06:04:51.416Z,74.90
2018-07-05T06:07:31.072Z,77.10
2018-07-05T06:10:10.626Z,75.20
2018-07-05T06:12:50.200Z,75.00
2018-07-05T06:15:29.797Z,75.90
2018-07-05T06:18:09.475Z,75.70
2018-07-05T06:20:49.054Z,73.50
2018-07-05T06:23:28.625Z,74.00
2018-07-05T06:26:08.141Z,73.90
2018-07-05T06:28:47.831Z,73.10
2018-07-05T06:31:27.248Z,73.20
2018-07-05T06:34:06.858Z,73.40
2018-07-05T06:36:46.398Z,72.50
2018-07-05T06:39:26.120Z,72.10
2018-07-05T06:44:39.202Z,72.10
2018-07-05T06:47:18.611Z,71.10
2018-07-05T06:49:58.192Z,71.50
2018-07-05T06:52:37.859Z,69.30
2018-07-05T06:55:17.342Z,70.20
2018-07-05T06:57:57.126Z,68.40
2018-07-05T07:00:36.656Z,67.90
2018-07-05T07:03:16.341Z,65.20
2018-07-05T07:05:55.960Z,64.50
2018-07-05T09:33:56.180Z,61.20
2018-07-05T09:36:23.341Z,22.50
2018-07-05T09:38:50.526Z,24.40
2018-07-05T09:41:17.749Z,27.50
2018-07-05T09:43:44.920Z,29.10
2018-07-05T09:46:12.110Z,29.60
2018-07-05T09:48:39.385Z,31.00
2018-07-05T09:51:06.578Z,32.10
2018-07-05T09:53:33.803Z,30.30
2018-07-05T09:56:01.340Z,28.40
2018-07-05T09:58:28.520Z,28.80
2018-07-05T10:00:55.700Z,28.60
2018-07-05T10:03:24.080Z,28.70
2018-07-05T10:05:51.215Z,31.30
2018-07-05T10:08:19.147Z,32.40
2018-07-05T10:10:46.346Z,34.30
2018-07-05T10:13:13.646Z,36.20
2018-07-05T10:15:40.866Z,36.20
2018-07-05T10:18:08.086Z,37.80
2018-07-05T10:20:35.302Z,37.70
2018-07-05T10:23:03.338Z,35.70
2018-07-05T10:25:30.534Z,33.70
2018-07-05T10:27:57.707Z,33.50
2018-07-05T10:30:37.097Z,31.70
2018-07-05T10:33:16.789Z,30.50
2018-07-05T10:35:43.992Z,30.40
2018-07-05T10:38:11.201Z,29.10
2018-07-05T10:40:50.802Z,29.60
2018-07-05T10:43:30.500Z,30.80
2018-07-05T10:46:10.189Z,31.70
2018-07-05T10:48:49.741Z,31.20
2018-07-05T10:51:29.345Z,30.50
2018-07-05T10:54:09.054Z,30.60
2018-07-05T10:56:48.507Z,32.70
2018-07-05T10:59:28.170Z,32.40
2018-07-05T11:02:07.518Z,33.00
2018-07-05T11:04:47.199Z,34.00
2018-07-05T11:07:26.771Z,35.80
2018-07-05T11:10:06.197Z,34.00
2018-07-05T11:12:45.784Z,35.50
2018-07-05T11:15:25.524Z,35.80
2018-07-05T11:18:05.141Z,37.30
2018-07-05T11:20:44.784Z,37.80
2018-07-05T11:23:24.516Z,37.40
2018-07-05T11:26:04.206Z,37.70
2018-07-05T11:28:43.803Z,37.60
2018-07-05T11:31:24.304Z,39.70
2018-07-05T11:34:03.747Z,40.40
2018-07-05T11:36:43.430Z,40.20
2018-07-05T11:39:23.132Z,38.80
2018-07-05T11:42:02.652Z,38.70
2018-07-05T11:44:42.225Z,39.00
2018-07-05T11:47:21.925Z,38.30
2018-07-05T11:50:01.521Z,36.90
2018-07-05T11:52:40.960Z,36.80
2018-07-05T11:55:20.644Z,38.10
2018-07-05T11:58:00.233Z,38.00
2018-07-05T12:00:40.263Z,37.20
2018-07-05T12:03:19.887Z,37.00
2018-07-05T12:05:59.556Z,38.60
2018-07-05T12:08:39.424Z,37.40
2018-07-05T12:11:19.090Z,37.60
2018-07-05T12:13:58.653Z,37.60
2018-07-05T12:16:38.479Z,38.70
2018-07-05T12:19:18.044Z,39.20
2018-07-05T12:21:57.608Z,39.40
2018-07-05T12:24:37.229Z,40.20
2018-07-05T12:27:16.859Z,39.20
2018-07-05T12:29:56.528Z,40.70
2018-07-05T12:32:36.117Z,41.20
2018-07-05T12:35:15.752Z,39.60
2018-07-05T12:37:55.297Z,39.50
2018-07-05T12:40:34.965Z,39.50
2018-07-05T12:43:14.381Z,39.10
2018-07-05T12:45:53.985Z,38.00
2018-07-05T12:48:33.597Z,39.00
2018-07-05T12:51:13.127Z,40.00
2018-07-05T12:53:52.913Z,39.30
2018-07-05T12:56:32.377Z,39.50
2018-07-05T12:59:12.135Z,40.40
2018-07-05T13:01:51.748Z,40.00
2018-07-05T13:04:31.144Z,41.20
2018-07-05T13:07:10.799Z,40.80
2018-07-05T13:09:50.500Z,42.10
2018-07-05T13:12:30.475Z,43.00
2018-07-05T13:15:10.064Z,44.10
2018-07-05T13:17:49.435Z,42.50
2018-07-05T13:20:29.057Z,42.30
2018-07-05T13:23:08.550Z,43.30
2018-07-05T13:25:48.133Z,43.70
2018-07-05T13:28:27.628Z,43.20
2018-07-05T13:31:07.307Z,42.70
2018-07-05T13:33:46.877Z,43.60
2018-07-05T13:36:26.393Z,44.30
2018-07-05T13:39:06.428Z,43.90
2018-07-05T13:41:46.030Z,42.50
2018-07-05T13:44:25.884Z,41.40
2018-07-05T13:47:05.613Z,40.80
2018-07-05T13:49:46.117Z,40.80
2018-07-05T13:52:25.629Z,41.40
2018-07-05T13:55:05.333Z,42.10
2018-07-05T13:57:44.756Z,42.50
2018-07-05T14:00:24.384Z,42.10
2018-07-05T14:03:03.997Z,41.50
2018-07-05T14:05:43.653Z,47.00
2018-07-05T14:08:23.176Z,45.70
2018-07-05T14:11:02.783Z,46.90
2018-07-05T14:13:42.491Z,45.80
2018-07-05T14:16:21.964Z,45.20
2018-07-05T14:19:01.631Z,44.50
2018-07-05T14:21:41.200Z,45.40
2018-07-05T14:24:20.916Z,44.70
2018-07-05T14:27:00.556Z,45.10
2018-07-05T14:29:40.259Z,47.10
2018-07-05T14:32:19.945Z,46.00
2018-07-05T14:34:59.624Z,46.40
2018-07-05T14:37:39.083Z,46.40
2018-07-05T14:40:18.824Z,46.00
2018-07-05T14:42:58.387Z,51.40
2018-07-05T14:45:37.965Z,53.50
2018-07-05T14:48:17.831Z,55.20
2018-07-05T14:50:57.497Z,56.00
2018-07-05T14:53:37.172Z,57.10
2018-07-05T14:56:17.585Z,59.80
2018-07-05T14:58:57.182Z,63.50
2018-07-05T15:01:36.870Z,75.90
2018-07-05T15:04:16.427Z,77.70
2018-07-05T15:06:56.670Z,80.10
2018-07-05T15:09:36.332Z,82.00
2018-07-05T15:12:15.973Z,84.60
2018-07-05T15:14:55.489Z,87.00
2018-07-05T15:17:35.281Z,86.80
2018-07-05T15:20:14.930Z,87.40
2018-07-05T15:22:54.548Z,87.30
2018-07-05T15:25:34.188Z,89.70
2018-07-05T15:28:13.827Z,90.40
2018-07-05T15:30:53.384Z,91.00
2018-07-05T15:33:33.026Z,91.60
2018-07-05T15:36:12.476Z,91.10
2018-07-05T15:38:52.158Z,91.00
2018-07-05T15:41:31.592Z,90.40
2018-07-05T15:44:11.632Z,90.60
2018-07-05T15:46:51.125Z,90.80
2018-07-05T15:52:04.390Z,90.30
2018-07-05T15:54:44.009Z,88.70
2018-07-05T15:57:24.524Z,88.50
2018-07-05T16:00:04.220Z,88.20
2018-07-05T16:02:43.781Z,87.10
2018-07-05T16:05:23.314Z,85.00
2018-07-05T16:08:02.969Z,82.20
2018-07-05T16:10:42.749Z,82.20
2018-07-05T16:13:22.313Z,81.20
2018-07-05T16:16:01.979Z,80.00
2018-07-05T16:18:41.388Z,78.40
2018-07-05T16:21:21.075Z,78.60
2018-07-05T16:24:00.638Z,76.80
2018-07-05T16:26:40.283Z,75.70
2018-07-05T16:29:19.777Z,72.50
2018-07-05T16:31:59.384Z,73.90
2018-07-05T16:34:38.970Z,71.40
2018-07-05T16:37:18.690Z,67.30
2018-07-05T16:39:58.313Z,65.10
2018-07-05T16:42:37.840Z,64.70
2018-07-05T16:45:17.356Z,66.50
2018-07-05T16:47:57.085Z,63.20
2018-07-05T16:50:36.653Z,61.50
2018-07-05T16:55:50.025Z,58.40
2018-07-05T16:58:29.752Z,60.10
2018-07-05T17:01:09.393Z,58.60
2018-07-05T17:03:48.897Z,56.00
2018-07-05T17:06:29.439Z,57.20
2018-07-05T17:09:09.292Z,54.90
2018-07-05T17:11:49.431Z,53.00
2018-07-05T17:14:29.228Z,53.20
2018-07-05T17:17:09.014Z,51.90
2018-07-05T17:19:48.589Z,50.40
2018-07-05T17:22:28.224Z,50.80
2018-07-05T17:25:07.757Z,51.30
2018-07-05T17:27:47.419Z,51.50
2018-07-05T17:30:27.020Z,50.30
2018-07-05T17:33:07.605Z,51.00
2018-07-05T17:35:47.218Z,52.00
2018-07-05T17:38:26.692Z,50.70
2018-07-05T17:41:06.373Z,50.90
2018-07-05T17:43:46.510Z,50.60
2018-07-05T17:46:26.049Z,50.90
2018-07-05T17:49:05.613Z,51.70
2018-07-05T17:51:45.197Z,51.40
2018-07-05T17:54:24.751Z,50.70
2018-07-05T17:57:04.254Z,50.30
2018-07-05T17:59:43.816Z,51.10
2018-07-05T18:02:23.408Z,50.90
2018-07-05T18:05:03.188Z,51.60
2018-07-05T18:07:43.345Z,51.20
2018-07-05T18:10:22.836Z,52.10
2018-07-05T18:13:02.472Z,51.40
2018-07-05T18:15:42.165Z,51.40
2018-07-05T18:18:21.904Z,52.60
2018-07-05T18:21:01.501Z,51.30
2018-07-05T18:23:41.274Z,52.40
2018-07-05T18:26:22.230Z,52.80
2018-07-05T18:29:01.880Z,53.00
2018-07-05T18:31:41.702Z,53.00
2018-07-05T18:34:21.328Z,53.70
2018-07-05T18:37:01.233Z,53.60
2018-07-05T18:39:40.978Z,53.60
2018-07-05T18:42:20.687Z,54.40
2018-07-05T18:45:00.334Z,54.90
2018-07-05T18:47:40.365Z,54.70
2018-07-05T18:50:19.842Z,54.90
2018-07-05T18:52:59.630Z,55.70
2018-07-05T18:55:39.278Z,55.50
2018-07-05T18:58:19.870Z,55.90
2018-07-05T19:00:59.606Z,56.40
2018-07-05T19:03:39.423Z,56.10
2018-07-05T19:06:19.193Z,56.20
2018-07-05T19:08:58.972Z,57.20
2018-07-05T19:14:12.270Z,57.50
2018-07-05T19:16:51.779Z,57.80
2018-07-05T19:19:31.353Z,57.00
2018-07-05T19:22:10.844Z,58.20
2018-07-05T19:24:50.472Z,57.50
2018-07-05T19:30:03.619Z,58.30
2018-07-05T19:32:43.226Z,58.80
2018-07-05T19:35:23.343Z,59.10
2018-07-05T19:38:02.944Z,58.00
2018-07-05T19:40:42.671Z,58.00
2018-07-05T19:43:27.205Z,58.90
2018-07-05T19:46:06.684Z,58.90
2018-07-05T19:48:46.295Z,59.20
2018-07-05T19:51:26.372Z,60.00
2018-07-05T19:54:07.155Z,60.00
2018-07-05T19:56:46.720Z,59.40
2018-07-05T19:59:27.163Z,59.60
2018-07-05T20:02:06.797Z,59.70
2018-07-05T20:04:48.273Z,59.60
2018-07-05T20:07:27.985Z,59.50
2018-07-05T20:10:08.207Z,60.50
2018-07-05T20:12:47.987Z,60.50
2018-07-05T20:15:27.607Z,60.90
2018-07-05T20:18:07.228Z,60.90
2018-07-05T20:20:46.767Z,61.40
2018-07-05T20:23:26.432Z,62.10
2018-07-05T20:26:05.847Z,63.40
2018-07-05T20:28:45.455Z,64.80
2018-07-05T20:31:25.075Z,65.50
2018-07-05T20:34:04.485Z,67.10
2018-07-05T20:36:43.974Z,68.30
2018-07-05T20:39:23.440Z,69.90
2018-07-05T20:42:03.204Z,69.40
2018-07-05T20:44:42.762Z,69.90
2018-07-05T20:47:22.471Z,70.70
2018-07-05T20:50:02.026Z,71.10
2018-07-05T20:52:41.653Z,70.80
2018-07-05T20:55:21.192Z,71.20
2018-07-05T20:58:00.764Z,72.20
2018-07-05T21:00:40.350Z,72.60
2018-07-05T21:03:20.104Z,72.70
2018-07-05T21:06:01.730Z,73.10
2018-07-05T21:08:41.329Z,72.90
2018-07-05T21:11:20.922Z,73.50
2018-07-05T21:14:00.324Z,74.40
2018-07-05T21:16:41.701Z,74.80
2018-07-05T21:19:22.708Z,75.70
2018-07-05T21:22:02.349Z,75.60
2018-07-05T21:24:41.823Z,77.10
2018-07-05T21:27:21.488Z,77.60
2018-07-05T21:30:01.133Z,76.30
2018-07-05T21:32:40.782Z,76.90
2018-07-05T21:35:22.079Z,77.00
2018-07-05T21:38:02.186Z,77.10
2018-07-05T21:40:41.737Z,76.40
2018-07-05T21:43:21.661Z,77.10
2018-07-05T21:46:01.314Z,77.90
2018-07-05T21:48:40.931Z,78.60
2018-07-05T21:51:20.493Z,78.80
2018-07-05T21:54:00.040Z,79.80
2018-07-05T21:56:39.686Z,80.70
2018-07-05T21:59:19.487Z,81.20
2018-07-05T22:01:59.060Z,79.80
2018-07-05T22:04:38.740Z,79.50
2018-07-05T22:07:18.627Z,81.00
2018-07-05T22:09:58.213Z,80.20
2018-07-05T22:12:37.865Z,80.10
2018-07-05T22:15:17.428Z,80.90
2018-07-05T22:18:02.474Z,80.30
2018-07-05T22:21:49.088Z,80.80
2018-07-05T22:24:34.171Z,81.10
2018-07-05T22:27:19.197Z,81.40
2018-07-05T22:30:04.314Z,82.50
2018-07-05T22:32:44.146Z,83.10
2018-07-05T22:35:23.514Z,83.40
2018-07-05T22:38:03.173Z,83.40
2018-07-05T22:40:42.784Z,84.10
2018-07-05T22:43:22.390Z,84.50
2018-07-05T22:46:01.968Z,84.10
2018-07-05T22:48:41.712Z,84.30
2018-07-05T22:51:21.561Z,84.30
2018-07-05T22:54:01.138Z,84.80
2018-07-05T22:56:40.809Z,84.80
2018-07-05T22:59:20.192Z,84.10
2018-07-05T23:01:59.940Z,85.40
2018-07-05T23:04:39.582Z,85.60
2018-07-05T23:07:19.347Z,85.10
2018-07-05T23:09:58.918Z,85.10
2018-07-05T23:12:38.444Z,86.10
2018-07-05T23:15:18.042Z,85.60
2018-07-05T23:17:57.398Z,85.40
2018-07-05T23:20:38.557Z,86.10
2018-07-05T23:23:18.342Z,86.00
2018-07-05T23:25:57.930Z,86.00
2018-07-05T23:28:37.746Z,86.20
2018-07-05T23:31:17.490Z,86.80
2018-07-05T23:33:57.935Z,87.10
2018-07-05T23:36:37.429Z,87.00
2018-07-05T23:39:17.177Z,87.80
2018-07-05T23:41:56.607Z,87.70
2018-07-05T23:44:36.254Z,88.60
2018-07-05T23:47:15.894Z,88.50
2018-07-05T23:49:55.275Z,89.70
2018-07-05T23:52:34.958Z,89.80
2018-07-05T23:55:14.650Z,88.90
2018-07-05T23:57:54.253Z,89.00
